This is the latest recevied weather packets stored in our database for station/object W2GLD-13. If no packets are shown the sender has not sent any weather packets the latest 10 day(s).
| Time | Temp. | Humidity | Pressure | Rain* | Wind** | Luminosity | Snow |
|---|---|---|---|---|---|---|---|
| 1777259706 | 11.11° C | 68% | 1018.8 hPa | 0 mm | - | - | - |
| 1777258805 | 11.67° C | 74% | 1019.2 hPa | 0 mm | - | - | - |
| 1777257905 | 11.67° C | 74% | 1019.2 hPa | 0 mm | - | - | - |
| 1777257005 | 11.67° C | 74% | 1019.2 hPa | 0 mm | - | - | - |
| 1777256105 | 11.67° C | 74% | 1019.2 hPa | 0 mm | - | - | - |
| 1777255205 | 13.33° C | 62% | 1018.6 hPa | 0 mm | - | - | - |
| 1777254306 | 13.33° C | 62% | 1018.6 hPa | 0 mm | - | - | - |
| 1777253406 | 13.33° C | 62% | 1018.6 hPa | 0 mm | - | - | - |
| 1777252506 | 13.33° C | 62% | 1018.6 hPa | 0 mm | - | - | - |
| 1777251606 | 15.56° C | 61% | 1018.1 hPa | 0 mm | - | - | - |
| 1777250706 | 15.56° C | 61% | 1018.1 hPa | 0 mm | - | - | - |
| 1777249805 | 15.56° C | 61% | 1018.1 hPa | 0 mm | - | - | - |
| 1777248905 | 15.56° C | 61% | 1018.1 hPa | 0 mm | - | - | - |
| 1777248005 | 16.67° C | 58% | 1018.1 hPa | 0 mm | - | - | - |
| 1777247105 | 16.67° C | 58% | 1018.1 hPa | 0 mm | - | - | - |
| 1777246205 | 16.67° C | 58% | 1018.1 hPa | 0 mm | - | - | - |
| 1777245306 | 16.67° C | 58% | 1018.1 hPa | 0 mm | - | - | - |
| 1777244406 | 17.78° C | 49% | 1018.2 hPa | 0 mm | - | - | - |
| 1777243506 | 17.78° C | 49% | 1018.2 hPa | 0 mm | - | - | - |
| 1777242606 | 17.78° C | 49% | 1018.2 hPa | 0 mm | - | - | - |
| 1777241705 | 17.78° C | 49% | 1018.2 hPa | 0 mm | - | - | - |
| 1777240805 | 18.33° C | 52% | 1018.3 hPa | 0 mm | - | - | - |
| 1777239905 | 18.33° C | 52% | 1018.3 hPa | 0 mm | - | - | - |
| 1777239005 | 18.33° C | 52% | 1018.3 hPa | 0 mm | - | - | - |
| 1777238106 | 18.33° C | 52% | 1018.3 hPa | 0 mm | - | - | - |
* Rain latest hour (hover to see other rain measurements)
** Current wind speed in m/s (hover to see current wind gust speed)